createdAt,value
2019-03-03T00:02:45.772Z,80.47
2019-03-03T00:05:50.926Z,79.61
2019-03-03T00:08:57.114Z,81.50
2019-03-03T00:12:02.220Z,81.18
2019-03-03T00:15:08.163Z,81.58
2019-03-03T00:18:13.328Z,81.66
2019-03-03T00:21:20.118Z,83.01
2019-03-03T00:24:25.341Z,82.86
2019-03-03T00:27:30.454Z,82.80
2019-03-03T00:30:35.592Z,83.53
2019-03-03T00:33:40.849Z,83.56
2019-03-03T00:37:03.604Z,83.64
2019-03-03T00:40:18.673Z,83.68
2019-03-03T00:43:41.669Z,82.46
2019-03-03T00:47:13.531Z,82.65
2019-03-03T00:50:37.734Z,82.96
2019-03-03T00:54:01.551Z,82.92
2019-03-03T00:57:24.545Z,82.47
2019-03-03T01:00:52.583Z,82.29
2019-03-03T01:04:06.397Z,82.30
2019-03-03T01:07:33.815Z,81.52
2019-03-03T01:11:06.728Z,82.51
2019-03-03T01:14:28.386Z,81.93
2019-03-03T01:17:40.543Z,81.35
2019-03-03T01:21:16.647Z,81.28
2019-03-03T01:24:31.171Z,81.45
2019-03-03T01:27:36.311Z,80.58
2019-03-03T01:30:41.480Z,80.36
2019-03-03T01:33:46.527Z,80.78
2019-03-03T01:36:51.671Z,80.35
2019-03-03T01:39:56.813Z,80.52
2019-03-03T01:43:01.976Z,79.75
2019-03-03T01:46:07.031Z,79.92
2019-03-03T01:49:12.151Z,80.66
2019-03-03T01:52:17.344Z,81.08
2019-03-03T01:55:22.427Z,79.88
2019-03-03T01:58:27.537Z,80.70
2019-03-03T02:01:32.657Z,79.86
2019-03-03T02:04:37.750Z,80.89
2019-03-03T02:07:42.847Z,81.00
2019-03-03T02:10:48.014Z,79.60
2019-03-03T02:13:53.235Z,79.69
2019-03-03T02:16:58.322Z,77.40
2019-03-03T02:20:03.741Z,77.13
2019-03-03T02:23:08.869Z,78.06
2019-03-03T02:26:14.064Z,78.46
2019-03-03T02:29:19.162Z,78.79
2019-03-03T02:32:24.292Z,77.66
2019-03-03T02:35:29.531Z,77.74
2019-03-03T02:38:34.667Z,78.21
2019-03-03T02:41:39.767Z,79.06
2019-03-03T02:44:45.524Z,78.88
2019-03-03T02:47:50.613Z,77.82
2019-03-03T02:50:55.820Z,77.77
2019-03-03T02:54:00.924Z,78.00
2019-03-03T02:57:06.109Z,78.57
2019-03-03T03:00:15.831Z,77.89
2019-03-03T03:03:22.046Z,77.43
2019-03-03T03:06:55.437Z,77.28
2019-03-03T03:10:31.848Z,78.21
2019-03-03T03:13:54.913Z,77.97
2019-03-03T03:17:18.682Z,78.42
2019-03-03T03:20:41.322Z,79.00
2019-03-03T03:24:01.598Z,79.18
2019-03-03T03:27:29.174Z,78.13
2019-03-03T03:30:56.067Z,78.92
2019-03-03T03:34:14.638Z,78.56
2019-03-03T03:37:32.092Z,79.35
2019-03-03T03:40:52.367Z,78.75
2019-03-03T03:44:09.879Z,78.14
2019-03-03T03:47:23.068Z,79.02
2019-03-03T03:50:59.385Z,78.46
2019-03-03T03:54:30.414Z,79.01
2019-03-03T03:58:00.343Z,80.06
2019-03-03T04:01:17.216Z,79.59
2019-03-03T04:04:47.154Z,79.55
2019-03-03T04:08:20.452Z,77.83
2019-03-03T04:11:47.591Z,77.83
2019-03-03T04:15:17.627Z,78.64
2019-03-03T04:18:45.149Z,78.53
2019-03-03T04:22:09.319Z,78.28
2019-03-03T04:25:41.849Z,78.78
2019-03-03T04:29:08.291Z,78.06
2019-03-03T04:32:38.258Z,77.45
2019-03-03T04:36:10.490Z,78.10
2019-03-03T04:39:20.873Z,78.83
2019-03-03T04:42:41.180Z,79.07
2019-03-03T04:45:53.504Z,78.96
2019-03-03T04:49:06.300Z,80.05
2019-03-03T04:52:30.401Z,80.79
2019-03-03T04:55:54.532Z,81.10
2019-03-03T04:59:24.516Z,81.36
2019-03-03T05:02:50.425Z,80.61
2019-03-03T05:06:01.673Z,80.40
2019-03-03T05:09:19.315Z,79.35
2019-03-03T05:12:43.150Z,80.27
2019-03-03T05:16:13.163Z,80.53
2019-03-03T05:19:28.375Z,81.66
2019-03-03T05:22:33.531Z,81.30
2019-03-03T05:25:38.613Z,79.45
2019-03-03T05:28:43.744Z,80.03
2019-03-03T05:31:49.084Z,79.95
2019-03-03T05:34:55.235Z,78.24
2019-03-03T05:38:00.430Z,78.42
2019-03-03T05:41:05.500Z,78.95
2019-03-03T05:44:10.579Z,78.88
2019-03-03T05:47:15.689Z,78.89
2019-03-03T05:50:20.835Z,77.96
2019-03-03T05:53:25.923Z,78.11
2019-03-03T05:56:31.050Z,78.15
2019-03-03T05:59:36.186Z,77.63
2019-03-03T06:02:41.295Z,77.56
2019-03-03T06:05:47.474Z,77.51
2019-03-03T06:08:52.631Z,75.95
2019-03-03T06:11:57.780Z,75.42
2019-03-03T06:15:02.893Z,76.44
2019-03-03T06:18:08.050Z,76.17
2019-03-03T06:21:13.219Z,76.12
2019-03-03T06:24:18.319Z,75.54
2019-03-03T06:27:23.510Z,75.60
2019-03-03T06:30:28.606Z,75.04
2019-03-03T06:33:33.765Z,75.72
2019-03-03T06:36:38.906Z,75.37
2019-03-03T06:39:44.064Z,75.17
2019-03-03T06:42:49.213Z,75.23
2019-03-03T06:45:54.322Z,74.39
2019-03-03T06:48:59.400Z,74.16
2019-03-03T06:52:04.510Z,74.03
2019-03-03T06:55:11.527Z,73.90
2019-03-03T06:58:16.707Z,73.72
2019-03-03T07:01:21.950Z,73.21
2019-03-03T07:04:27.119Z,73.34
2019-03-03T07:07:32.196Z,73.28
2019-03-03T07:10:37.333Z,72.98
2019-03-03T07:13:42.516Z,72.40
2019-03-03T07:16:47.645Z,71.73
2019-03-03T07:19:52.861Z,71.99
2019-03-03T07:22:58.197Z,72.18
2019-03-03T07:26:03.417Z,71.60
2019-03-03T07:29:08.563Z,70.90
2019-03-03T07:32:13.773Z,71.31
2019-03-03T07:35:18.935Z,70.67
2019-03-03T07:38:24.124Z,70.94
2019-03-03T07:41:29.304Z,70.41
2019-03-03T07:44:34.665Z,70.89
2019-03-03T07:47:39.810Z,70.28
2019-03-03T07:50:44.946Z,69.83
2019-03-03T07:53:50.059Z,69.95
2019-03-03T07:56:55.290Z,69.62
2019-03-03T08:00:00.479Z,68.58
2019-03-03T08:03:07.292Z,69.44
2019-03-03T08:06:12.503Z,70.09
2019-03-03T08:09:17.649Z,69.87
2019-03-03T08:12:22.786Z,69.58
2019-03-03T08:15:28.034Z,69.49
2019-03-03T08:18:33.322Z,69.38
2019-03-03T08:21:38.451Z,68.77
2019-03-03T08:24:43.546Z,69.49
2019-03-03T08:27:49.797Z,67.70
2019-03-03T08:30:54.912Z,67.62
2019-03-03T08:34:01.434Z,68.03
2019-03-03T08:37:06.653Z,66.33
2019-03-03T08:40:11.901Z,67.12
2019-03-03T08:43:34.659Z,65.85
2019-03-03T08:46:48.255Z,65.71
2019-03-03T08:50:12.307Z,66.07
2019-03-03T08:53:39.317Z,66.72
2019-03-03T08:57:07.101Z,65.73
2019-03-03T09:00:30.051Z,65.52
2019-03-03T09:03:41.023Z,67.12
2019-03-03T09:06:57.322Z,65.80
2019-03-03T09:10:25.565Z,66.69
2019-03-03T09:13:52.759Z,66.16
2019-03-03T09:17:35.149Z,65.31
2019-03-03T09:21:03.619Z,65.55
2019-03-03T09:24:30.504Z,63.10
2019-03-03T09:28:06.810Z,65.23
2019-03-03T09:31:29.547Z,64.34
2019-03-03T09:34:49.927Z,62.86
2019-03-03T09:38:03.532Z,62.67
2019-03-03T09:41:15.187Z,61.37
2019-03-03T09:44:45.906Z,61.45
2019-03-03T09:48:18.908Z,59.42
2019-03-03T09:51:52.020Z,59.62
2019-03-03T09:55:08.114Z,61.46
2019-03-03T09:58:44.178Z,59.99
2019-03-03T10:02:08.272Z,61.78
2019-03-03T10:05:32.360Z,62.11
2019-03-03T10:08:48.014Z,61.89
2019-03-03T10:11:59.931Z,60.96
2019-03-03T10:15:43.011Z,60.90
2019-03-03T10:18:55.949Z,62.76
2019-03-03T10:22:23.012Z,62.10
2019-03-03T10:25:34.955Z,63.02
2019-03-03T10:28:50.206Z,62.11
2019-03-03T10:32:30.202Z,60.62
2019-03-03T10:35:53.051Z,60.26
2019-03-03T10:39:05.543Z,60.53
2019-03-03T10:42:40.231Z,60.95
2019-03-03T10:46:10.670Z,59.74
2019-03-03T10:49:34.876Z,60.69
2019-03-03T10:53:11.260Z,59.56
2019-03-03T10:56:26.267Z,57.49
2019-03-03T10:59:55.059Z,58.75
2019-03-03T11:03:28.937Z,58.97
2019-03-03T11:06:51.531Z,58.80
2019-03-03T11:10:21.870Z,60.05
2019-03-03T11:13:52.501Z,60.56
2019-03-03T11:17:09.021Z,60.13
2019-03-03T11:20:24.664Z,59.96
2019-03-03T11:23:47.593Z,59.56
2019-03-03T11:27:10.589Z,60.53
2019-03-03T11:30:37.488Z,60.69
2019-03-03T11:34:04.801Z,60.53
2019-03-03T11:37:27.976Z,60.68
2019-03-03T11:40:58.178Z,60.78
2019-03-03T11:44:10.811Z,61.79
2019-03-03T11:47:34.190Z,60.65
2019-03-03T11:50:52.431Z,60.43
2019-03-03T11:54:12.246Z,62.04
2019-03-03T11:57:32.322Z,60.93
2019-03-03T12:00:45.845Z,61.80
2019-03-03T12:04:18.983Z,62.26
2019-03-03T12:07:55.387Z,61.61
2019-03-03T12:11:08.217Z,61.53
2019-03-03T12:14:35.284Z,60.30
2019-03-03T12:17:46.466Z,59.74
2019-03-03T12:21:16.889Z,57.81
2019-03-03T12:24:31.077Z,58.90
2019-03-03T12:27:48.047Z,59.17
2019-03-03T12:31:01.334Z,57.72
2019-03-03T12:34:17.607Z,57.94
2019-03-03T12:37:40.305Z,57.81
2019-03-03T12:40:59.379Z,57.50
2019-03-03T12:44:10.715Z,57.89
2019-03-03T12:47:37.826Z,59.74
2019-03-03T12:51:11.303Z,58.24
2019-03-03T12:54:35.479Z,59.21
2019-03-03T12:58:11.582Z,58.42
2019-03-03T13:01:34.319Z,56.88
2019-03-03T13:04:59.172Z,58.19
2019-03-03T13:08:16.543Z,58.17
2019-03-03T13:11:50.928Z,58.27
2019-03-03T13:15:03.459Z,58.92
2019-03-03T13:18:25.112Z,59.94
2019-03-03T13:21:52.401Z,59.31
2019-03-03T13:25:21.528Z,59.53
2019-03-03T13:28:44.700Z,59.32
2019-03-03T13:32:07.456Z,59.73
2019-03-03T13:35:34.400Z,61.17
2019-03-03T13:38:57.241Z,60.80
2019-03-03T13:42:21.307Z,60.63
2019-03-03T13:45:28.718Z,60.63
2019-03-03T13:48:33.984Z,61.01
2019-03-03T13:51:39.254Z,60.47
2019-03-03T13:54:44.363Z,59.94
2019-03-03T13:57:49.606Z,58.99
2019-03-03T14:00:54.802Z,58.53
2019-03-03T14:03:59.957Z,59.01
2019-03-03T14:07:05.518Z,59.58
2019-03-03T14:10:11.206Z,59.48
2019-03-03T14:13:16.440Z,58.68
2019-03-03T14:16:21.569Z,58.91
2019-03-03T14:19:26.725Z,59.28
2019-03-03T14:22:31.994Z,59.08
2019-03-03T14:25:37.115Z,58.00
2019-03-03T14:28:42.251Z,58.46
2019-03-03T14:31:47.415Z,57.56
2019-03-03T14:34:52.595Z,56.97
2019-03-03T14:37:57.717Z,58.01
2019-03-03T14:41:02.866Z,57.92
2019-03-03T14:44:08.050Z,57.62
2019-03-03T14:47:13.162Z,57.91
2019-03-03T14:50:18.634Z,58.66
2019-03-03T14:53:25.252Z,59.10
2019-03-03T14:56:30.438Z,58.51
2019-03-03T14:59:35.550Z,58.66
2019-03-03T15:02:40.707Z,58.51
2019-03-03T15:05:46.989Z,58.66
2019-03-03T15:08:52.245Z,59.21
2019-03-03T15:11:57.457Z,57.86
2019-03-03T15:15:02.839Z,58.46
2019-03-03T15:18:08.140Z,59.59
2019-03-03T15:21:14.196Z,59.82
2019-03-03T15:24:19.402Z,60.71
2019-03-03T15:27:24.639Z,60.71
2019-03-03T15:30:29.802Z,59.48
2019-03-03T15:33:35.115Z,59.55
2019-03-03T15:36:40.380Z,59.96
2019-03-03T15:39:45.513Z,60.49
2019-03-03T15:42:50.868Z,60.97
2019-03-03T15:45:57.056Z,61.36
2019-03-03T15:49:02.221Z,61.63
2019-03-03T15:52:07.358Z,62.22
2019-03-03T15:55:13.254Z,62.13
2019-03-03T15:58:18.518Z,62.23
2019-03-03T16:01:25.165Z,62.68
2019-03-03T16:04:30.372Z,63.94
2019-03-03T16:07:35.489Z,63.82
2019-03-03T16:10:40.684Z,64.08
2019-03-03T16:13:45.760Z,64.25
2019-03-03T16:16:50.891Z,64.85
2019-03-03T16:19:56.159Z,64.56
2019-03-03T16:23:01.403Z,64.93
2019-03-03T16:26:06.530Z,65.48
2019-03-03T16:29:11.805Z,65.36
2019-03-03T16:32:18.015Z,65.43
2019-03-03T16:35:23.262Z,65.93
2019-03-03T16:38:28.379Z,66.38
2019-03-03T16:41:33.527Z,66.11
2019-03-03T16:44:38.704Z,66.50
2019-03-03T16:47:44.037Z,66.53
2019-03-03T16:50:49.196Z,67.09
2019-03-03T16:53:54.376Z,67.71
2019-03-03T16:56:59.520Z,67.18
2019-03-03T17:00:06.942Z,67.41
2019-03-03T17:03:12.889Z,67.37
2019-03-03T17:06:18.070Z,67.41
2019-03-03T17:09:23.186Z,67.86
2019-03-03T17:12:28.538Z,67.16
2019-03-03T17:15:33.629Z,68.02
2019-03-03T17:18:40.523Z,67.94
2019-03-03T17:21:45.723Z,68.10
2019-03-03T17:24:51.289Z,68.30
2019-03-03T17:27:56.489Z,68.55
2019-03-03T17:31:01.614Z,68.13
2019-03-03T17:34:12.992Z,68.11
2019-03-03T17:37:13.647Z,68.16
2019-03-03T17:40:19.871Z,68.18
2019-03-03T17:43:25.045Z,67.53
2019-03-03T17:46:30.134Z,66.44
2019-03-03T17:49:35.333Z,66.76
2019-03-03T17:52:40.507Z,66.54
2019-03-03T17:55:45.722Z,66.46
2019-03-03T17:58:50.930Z,66.58
2019-03-03T18:01:56.259Z,65.27
2019-03-03T18:05:01.401Z,65.71
2019-03-03T18:08:06.640Z,65.69
2019-03-03T18:11:11.809Z,65.24
2019-03-03T18:14:17.135Z,65.27
2019-03-03T18:17:24.447Z,65.32
2019-03-03T18:20:29.627Z,65.18
2019-03-03T18:23:34.730Z,65.80
2019-03-03T18:26:39.943Z,65.61
2019-03-03T18:29:45.226Z,65.30
2019-03-03T18:32:50.482Z,65.49
2019-03-03T18:35:55.731Z,65.23
2019-03-03T18:39:01.038Z,65.59
2019-03-03T18:42:07.843Z,65.54
2019-03-03T18:45:14.061Z,65.33
2019-03-03T18:48:19.176Z,65.50
2019-03-03T18:51:24.343Z,65.86
2019-03-03T18:54:29.482Z,65.40
2019-03-03T18:57:37.137Z,65.81
2019-03-03T19:00:42.323Z,65.66
2019-03-03T19:03:47.568Z,65.92
2019-03-03T19:06:53.284Z,66.02
2019-03-03T19:09:58.529Z,66.19
2019-03-03T19:13:03.720Z,66.49
2019-03-03T19:16:08.976Z,66.81
2019-03-03T19:19:14.254Z,66.58
2019-03-03T19:22:19.465Z,66.67
2019-03-03T19:25:25.641Z,66.56
2019-03-03T19:28:30.777Z,66.33
2019-03-03T19:31:35.972Z,66.17
2019-03-03T19:34:41.208Z,66.04
2019-03-03T19:37:46.354Z,65.96
2019-03-03T19:40:51.494Z,66.40
2019-03-03T19:43:56.638Z,66.81
2019-03-03T19:47:01.962Z,66.50
2019-03-03T19:50:08.736Z,66.29
2019-03-03T19:53:13.962Z,66.35
2019-03-03T19:56:19.519Z,65.70
2019-03-03T19:59:24.675Z,66.41
2019-03-03T20:02:29.858Z,65.83
2019-03-03T20:05:36.275Z,66.07
2019-03-03T20:08:41.578Z,65.77
2019-03-03T20:11:47.870Z,66.54
2019-03-03T20:14:53.148Z,66.93
2019-03-03T20:17:58.262Z,67.83
2019-03-03T20:21:04.357Z,69.02
2019-03-03T20:24:09.537Z,70.33
2019-03-03T20:27:15.028Z,69.56
2019-03-03T20:30:20.455Z,71.59
2019-03-03T20:33:25.685Z,72.00
2019-03-03T20:36:30.900Z,72.10
2019-03-03T20:39:36.179Z,73.12
2019-03-03T20:42:43.006Z,74.21
2019-03-03T20:45:48.290Z,73.52
2019-03-03T20:48:53.492Z,73.47
2019-03-03T20:51:58.698Z,71.65
2019-03-03T20:55:03.854Z,71.08
2019-03-03T20:58:09.011Z,71.66
2019-03-03T21:01:14.130Z,69.28
2019-03-03T21:04:19.402Z,70.96
2019-03-03T21:07:24.596Z,70.04
2019-03-03T21:10:29.774Z,68.17
2019-03-03T21:13:34.958Z,68.97
2019-03-03T21:16:40.054Z,69.39
2019-03-03T21:19:45.193Z,69.11
2019-03-03T21:22:50.386Z,68.55
2019-03-03T21:25:55.540Z,68.61
2019-03-03T21:29:00.687Z,69.12
2019-03-03T21:32:05.841Z,68.41
2019-03-03T21:35:10.985Z,67.57
2019-03-03T21:38:16.132Z,67.84
2019-03-03T21:41:21.307Z,67.10
2019-03-03T21:44:26.432Z,67.06
2019-03-03T21:47:31.581Z,67.19
2019-03-03T21:50:36.791Z,66.82
2019-03-03T21:53:41.958Z,65.71
2019-03-03T21:56:47.040Z,65.40
2019-03-03T21:59:52.308Z,65.64
2019-03-03T22:02:58.786Z,65.78
2019-03-03T22:06:04.006Z,65.07
2019-03-03T22:09:09.935Z,65.91
2019-03-03T22:12:16.653Z,65.44
2019-03-03T22:15:21.729Z,65.33
2019-03-03T22:18:26.869Z,65.07
2019-03-03T22:21:32.049Z,65.63
2019-03-03T22:24:37.299Z,65.55
2019-03-03T22:27:42.449Z,64.27
2019-03-03T22:30:47.668Z,65.26
2019-03-03T22:33:52.822Z,64.75
2019-03-03T22:36:57.998Z,64.40
2019-03-03T22:40:03.119Z,63.88
2019-03-03T22:43:08.373Z,64.67
2019-03-03T22:46:13.481Z,65.11
2019-03-03T22:49:18.559Z,65.37
2019-03-03T22:52:23.806Z,64.56
2019-03-03T22:55:34.609Z,65.07
2019-03-03T22:58:39.936Z,64.71
2019-03-03T23:01:46.341Z,65.31
2019-03-03T23:05:05.889Z,65.27
2019-03-03T23:08:24.079Z,64.84
2019-03-03T23:11:59.545Z,64.89
2019-03-03T23:15:31.070Z,65.99
2019-03-03T23:19:07.635Z,67.97
2019-03-03T23:22:52.800Z,70.28
2019-03-03T23:25:57.966Z,71.88
2019-03-03T23:29:03.232Z,71.27
2019-03-03T23:32:08.356Z,72.00
2019-03-03T23:35:13.586Z,72.72
2019-03-03T23:38:18.774Z,73.27
2019-03-03T23:41:23.945Z,74.27
2019-03-03T23:44:29.087Z,73.89
2019-03-03T23:47:34.217Z,74.07
2019-03-03T23:50:39.377Z,74.58
2019-03-03T23:53:44.482Z,74.76
2019-03-03T23:56:49.625Z,74.20
2019-03-03T23:59:54.711Z,74.37
